Terminal Aerodrome Forecast
Issued by NWS Brownsville, TX

Home | Current Version | Previous Version | Text Only | Print | Product List | Glossary On
Versions: 1 2 3 4 5 6 7 8 9 10 11 12 13 14 15 16 17 18 19 20 21 22 23 24 25 26 27 28 29 30
000
FTUS44 KBRO 230520
TAFHRL
TAF
KHRL 230520Z 2306/2406 13008KT P6SM SCT050 BKN100
     FM231500 14015G21KT P6SM SCT020 BKN040
     FM231800 16018G24KT P6SM SCT030 BKN050
     FM232100 14012KT P6SM VCSH SCT050 BKN100 PROB30 2400/2406 P6SM
      -TSRA SCT030 OVC050CB=

USA.gov is the U.S. government's official web portal to all federal, state and local government web resources and services.